Time;durP1;ratioP1;P1;durP2;ratioP2;P2;SDS_P1;SDS_P2;PMS_P1;PMS_P2;Temp;Humidity;BMP_temperature;BMP_pressure;BME280_temperature;BME280_humidity;BME280_pressure;Samples;Min_cycle;Max_cycle;Signal;HPM_P1;HPM_P2
2024/01/08 00:00:26;;;;;;;11.57;10.30;;;;;;;-146.58;100.00;69501.63;5029975;28;20060;-68
2024/01/08 00:02:51;;;;;;;12.20;9.15;;;;;;;-146.58;100.00;69501.63;5031504;28;20021;-68
2024/01/08 00:05:17;;;;;;;8.63;7.80;;;;;;;-146.58;100.00;69501.63;5029591;28;20424;-68
2024/01/08 00:07:42;;;;;;;12.30;8.88;;;;;;;-146.58;100.00;69501.63;5031115;28;20036;-68
2024/01/08 00:10:08;;;;;;;9.57;7.97;;;;;;;-146.58;100.00;69501.63;5029739;28;20385;-68
2024/01/08 00:12:33;;;;;;;9.73;8.77;;;;;;;-146.58;100.00;69501.63;5031066;28;20104;-68
2024/01/08 00:14:58;;;;;;;9.80;7.72;;;;;;;-146.58;100.00;69501.63;5029575;28;20042;-68
2024/01/08 00:17:24;;;;;;;9.10;8.18;;;;;;;-146.58;100.00;69501.63;5031076;28;20017;-68
2024/01/08 00:19:49;;;;;;;8.52;7.72;;;;;;;-146.58;100.00;69501.63;5029203;28;20038;-68
2024/01/08 00:22:15;;;;;;;12.30;10.90;;;;;;;-146.58;100.00;69501.63;5031539;28;20025;-67
2024/01/08 00:24:40;;;;;;;10.20;9.07;;;;;;;-146.58;100.00;69501.63;5029504;28;20041;-67
2024/01/08 00:27:05;;;;;;;8.98;8.07;;;;;;;-146.58;100.00;69501.63;5031120;28;20017;-66
2024/01/08 00:29:31;;;;;;;8.70;7.75;;;;;;;-146.58;100.00;69501.63;5029499;28;20033;-66
2024/01/08 00:31:56;;;;;;;15.45;10.02;;;;;;;-146.58;100.00;69501.63;5030920;28;20549;-66
2024/01/08 00:34:22;;;;;;;9.73;8.77;;;;;;;-146.58;100.00;69501.63;5029019;28;20109;-66
2024/01/08 00:36:47;;;;;;;11.63;10.43;;;;;;;-146.58;100.00;69501.63;5030649;28;20028;-66
2024/01/08 00:39:13;;;;;;;14.52;9.85;;;;;;;-146.58;100.00;69501.63;5029677;28;20022;-65
2024/01/08 00:41:38;;;;;;;11.35;8.00;;;;;;;-146.58;100.00;69501.63;5030304;28;20377;-66
2024/01/08 00:44:04;;;;;;;14.75;10.27;;;;;;;-146.58;100.00;69501.63;5031072;28;20143;-66
2024/01/08 00:46:29;;;;;;;14.73;10.85;;;;;;;-146.58;100.00;69501.63;5029152;28;20052;-66
2024/01/08 00:48:56;;;;;;;10.38;8.82;;;;;;;-146.58;100.00;69501.63;5033730;28;20506;-66
2024/01/08 00:51:22;;;;;;;11.82;10.40;;;;;;;-146.58;100.00;69501.63;5033511;28;20524;-66
2024/01/08 00:53:47;;;;;;;10.98;9.82;;;;;;;-146.58;100.00;69501.63;5034691;28;20079;-66
2024/01/08 00:56:14;;;;;;;13.07;8.82;;;;;;;-146.58;100.00;69501.63;5033113;28;20068;-66
2024/01/08 00:58:41;;;;;;;12.15;9.30;;;;;;;-146.58;100.00;69501.63;5034927;28;20121;-66
2024/01/08 01:01:07;;;;;;;12.20;10.90;;;;;;;-146.58;100.00;69501.63;5033379;28;20048;-65
2024/01/08 01:03:32;;;;;;;9.77;8.85;;;;;;;-146.58;100.00;69501.63;5034070;28;20033;-66
2024/01/08 01:05:58;;;;;;;11.23;8.73;;;;;;;-146.58;100.00;69501.63;5033285;28;20408;-66
2024/01/08 01:08:23;;;;;;;16.85;11.23;;;;;;;-146.58;100.00;69501.63;5034755;28;20025;-66
2024/01/08 01:10:48;;;;;;;12.40;9.55;;;;;;;-146.58;100.00;69501.63;5032654;28;20037;-65
2024/01/08 01:13:14;;;;;;;9.90;8.98;;;;;;;-146.58;100.00;69501.63;5034707;28;20377;-66
2024/01/08 01:15:39;;;;;;;10.68;9.68;;;;;;;-146.58;100.00;69501.63;5032395;28;20100;-65
2024/01/08 01:18:05;;;;;;;15.10;11.27;;;;;;;-146.58;100.00;69501.63;5034028;28;20091;-66
2024/01/08 01:20:30;;;;;;;14.63;12.77;;;;;;;-146.58;100.00;69501.63;5033042;28;20048;-65
2024/01/08 01:22:56;;;;;;;10.95;9.85;;;;;;;-146.58;100.00;69501.63;5034489;28;20021;-65
2024/01/08 01:25:21;;;;;;;13.15;10.98;;;;;;;-146.58;100.00;69501.63;5032790;28;20041;-65
2024/01/08 01:27:47;;;;;;;11.45;10.35;;;;;;;-146.58;100.00;69501.63;5033997;28;20433;-67
2024/01/08 01:30:12;;;;;;;13.15;11.10;;;;;;;-146.58;100.00;69501.63;5032868;28;20099;-67
2024/01/08 01:32:38;;;;;;;14.73;13.25;;;;;;;-146.58;100.00;69501.63;5033418;28;20068;-67
2024/01/08 01:35:03;;;;;;;15.63;11.55;;;;;;;-146.58;100.00;69501.63;5032978;28;20123;-67
2024/01/08 01:37:29;;;;;;;12.68;10.50;;;;;;;-146.58;100.00;69501.63;5033632;28;20485;-67
2024/01/08 01:39:55;;;;;;;19.35;11.38;;;;;;;-146.58;100.00;69501.63;5032583;28;20033;-66
2024/01/08 01:42:21;;;;;;;17.58;13.18;;;;;;;-146.58;100.00;69501.63;5034179;28;20060;-65
2024/01/08 01:44:46;;;;;;;17.85;11.15;;;;;;;-146.58;100.00;69501.63;5032308;28;20037;-65
2024/01/08 01:47:12;;;;;;;14.23;12.25;;;;;;;-146.58;100.00;69501.63;5033637;28;20021;-65
2024/01/08 01:49:39;;;;;;;18.67;14.15;;;;;;;-146.58;100.00;69501.63;5032235;28;20040;-64
2024/01/08 01:52:05;;;;;;;13.60;12.18;;;;;;;-146.58;100.00;69501.63;5033770;28;20060;-65
2024/01/08 01:54:32;;;;;;;15.68;11.95;;;;;;;-146.58;100.00;69501.63;5032080;28;20029;-64
2024/01/08 01:57:00;;;;;;;14.00;10.15;;;;;;;-146.58;100.00;69501.63;5033839;28;20030;-65
2024/01/08 01:59:27;;;;;;;14.43;11.95;;;;;;;-146.58;100.00;69501.63;5031333;28;20061;-64
2024/01/08 02:01:54;;;;;;;18.98;12.65;;;;;;;-146.58;100.00;69501.63;5033493;28;20025;-65
2024/01/08 02:04:21;;;;;;;15.73;12.20;;;;;;;-146.58;100.00;69501.63;5032111;28;20030;-64
2024/01/08 02:06:49;;;;;;;12.77;9.38;;;;;;;-146.58;100.00;69501.63;5033476;28;20014;-66
2024/01/08 02:09:15;;;;;;;13.77;11.10;;;;;;;-146.58;100.00;69501.63;5032211;28;20029;-65
2024/01/08 02:11:40;;;;;;;14.45;11.40;;;;;;;-146.58;100.00;69501.63;5033165;28;20095;-66
2024/01/08 02:14:06;;;;;;;12.30;10.98;;;;;;;-146.58;100.00;69501.63;5033487;28;20095;-66
2024/01/08 02:16:31;;;;;;;13.35;11.98;;;;;;;-146.58;100.00;69501.63;5031868;28;20038;-66
2024/01/08 02:18:57;;;;;;;14.05;11.20;;;;;;;-146.58;100.00;69501.63;5033250;28;20033;-66
2024/01/08 02:21:22;;;;;;;13.50;9.93;;;;;;;-146.58;100.00;69501.63;5031931;28;20045;-68
2024/01/08 02:23:47;;;;;;;15.32;11.02;;;;;;;-146.58;100.00;69501.63;5033192;28;20076;-67
2024/01/08 02:26:14;;;;;;;17.17;12.43;;;;;;;-146.58;100.00;69501.63;5031330;28;20475;-66
2024/01/08 02:28:39;;;;;;;13.27;9.80;;;;;;;-146.58;100.00;69501.63;5031634;28;20075;-66
2024/01/08 02:31:05;;;;;;;12.38;10.02;;;;;;;-146.58;100.00;69501.63;5032988;28;20029;-67
2024/01/08 02:33:30;;;;;;;10.88;9.80;;;;;;;-146.58;100.00;69501.63;5032384;28;20018;-67
2024/01/08 02:35:57;;;;;;;16.45;12.38;;;;;;;-146.58;100.00;69501.63;5031690;28;20037;-67
2024/01/08 02:38:23;;;;;;;14.55;10.80;;;;;;;-146.58;100.00;69501.63;5033081;28;20029;-67
2024/01/08 02:40:48;;;;;;;11.43;9.80;;;;;;;-146.58;100.00;69501.63;5030989;28;20111;-67
2024/01/08 02:43:13;;;;;;;16.98;11.93;;;;;;;-146.58;100.00;69501.63;5032767;28;20041;-67
2024/01/08 02:45:39;;;;;;;11.25;10.13;;;;;;;-146.58;100.00;69501.63;5031315;28;20037;-67
2024/01/08 02:48:05;;;;;;;12.75;11.45;;;;;;;-146.58;100.00;69501.63;5032806;28;20083;-67
2024/01/08 02:50:30;;;;;;;14.70;12.25;;;;;;;-146.58;100.00;69501.63;5031047;28;20475;-67
2024/01/08 02:52:55;;;;;;;15.52;12.90;;;;;;;-146.58;100.00;69501.63;5032719;28;20028;-67
2024/01/08 02:55:21;;;;;;;22.55;12.88;;;;;;;-146.58;100.00;69501.63;5030578;28;20041;-68
2024/01/08 02:57:46;;;;;;;13.98;10.32;;;;;;;-146.58;100.00;69501.63;5032571;28;20030;-67
2024/01/08 03:00:12;;;;;;;12.20;10.73;;;;;;;-146.58;100.00;69501.63;5031058;28;20072;-67
2024/01/08 03:02:38;;;;;;;12.40;10.73;;;;;;;-146.58;100.00;69501.63;5031928;28;20059;-67
2024/01/08 03:05:04;;;;;;;21.77;14.80;;;;;;;-146.58;100.00;69501.63;5031160;28;20075;-67
2024/01/08 03:07:29;;;;;;;11.88;10.05;;;;;;;-146.58;100.00;69501.63;5032273;28;20250;-67
2024/01/08 03:09:57;;;;;;;13.20;10.95;;;;;;;-146.58;100.00;69501.63;5030642;28;20037;-67
2024/01/08 03:12:23;;;;;;;11.45;10.13;;;;;;;-146.58;100.00;69501.63;5032410;28;20029;-67
2024/01/08 03:14:48;;;;;;;17.33;11.35;;;;;;;-146.58;100.00;69501.63;5030719;28;20049;-67
2024/01/08 03:17:14;;;;;;;24.60;16.17;;;;;;;-146.58;100.00;69501.63;5032239;28;20032;-66
2024/01/08 03:19:39;;;;;;;16.15;12.98;;;;;;;-146.58;100.00;69501.63;5030742;28;20504;-67
2024/01/08 03:22:04;;;;;;;12.85;10.25;;;;;;;-146.58;100.00;69501.63;5031835;28;20025;-65
2024/01/08 03:24:30;;;;;;;21.98;13.82;;;;;;;-146.58;100.00;69501.63;5030058;28;20076;-67
2024/01/08 03:26:55;;;;;;;14.57;12.15;;;;;;;-146.58;100.00;69501.63;5032108;28;20445;-67
2024/01/08 03:29:22;;;;;;;15.77;11.68;;;;;;;-146.58;100.00;69501.63;5030649;28;20099;-67
2024/01/08 03:31:48;;;;;;;11.40;10.30;;;;;;;-146.58;100.00;69501.63;5031377;28;20029;-67
2024/01/08 03:34:14;;;;;;;13.90;12.43;;;;;;;-146.58;100.00;69501.63;5030366;28;20052;-67
2024/01/08 03:36:44;;;;;;;17.05;13.75;;;;;;;-146.58;100.00;69501.63;5031513;28;20021;-67
2024/01/08 03:39:12;;;;;;;14.82;12.05;;;;;;;-146.58;100.00;69501.63;5030301;28;20041;-67
2024/01/08 03:41:37;;;;;;;15.18;12.75;;;;;;;-146.58;100.00;69501.63;5031621;28;20087;-67
2024/01/08 03:44:03;;;;;;;16.50;13.43;;;;;;;-146.58;100.00;69501.63;5030212;28;20041;-67
2024/01/08 03:46:28;;;;;;;30.73;14.02;;;;;;;-146.58;100.00;69501.63;5031399;28;20075;-67
2024/01/08 03:48:53;;;;;;;21.85;12.48;;;;;;;-146.58;100.00;69501.63;5030262;28;20496;-68
2024/01/08 03:51:19;;;;;;;16.17;13.60;;;;;;;-146.58;100.00;69501.63;5031614;28;20021;-68
2024/01/08 03:53:44;;;;;;;13.48;11.23;;;;;;;-146.58;100.00;69501.63;5029536;28;20033;-68
2024/01/08 03:56:10;;;;;;;15.23;13.63;;;;;;;-146.58;100.00;69501.63;5031443;28;20021;-68
2024/01/08 03:58:36;;;;;;;20.10;13.98;;;;;;;-146.58;100.00;69501.63;5029837;28;20056;-68
2024/01/08 04:01:02;;;;;;;15.18;12.93;;;;;;;-146.58;100.00;69501.63;5031298;28;20075;-68
2024/01/08 04:03:27;;;;;;;15.23;12.93;;;;;;;-146.58;100.00;69501.63;5031330;28;20033;-68
2024/01/08 04:05:52;;;;;;;29.10;16.17;;;;;;;-146.58;100.00;69501.63;5030128;28;20041;-68
2024/01/08 04:08:18;;;;;;;22.25;15.95;;;;;;;-146.58;100.00;69501.63;5031127;28;20021;-68
2024/01/08 04:10:43;;;;;;;15.98;12.55;;;;;;;-146.58;100.00;69501.63;5029514;28;20041;-68
2024/01/08 04:13:09;;;;;;;18.20;14.65;;;;;;;-146.58;100.00;69501.63;5031232;28;20409;-68
2024/01/08 04:15:34;;;;;;;18.02;14.90;;;;;;;-146.58;100.00;69501.63;5029393;28;20447;-68
2024/01/08 04:18:00;;;;;;;21.02;15.48;;;;;;;-146.58;100.00;69501.63;5031200;28;20034;-68
2024/01/08 04:20:25;;;;;;;16.17;13.63;;;;;;;-146.58;100.00;69501.63;5029605;28;20037;-68
2024/01/08 04:22:50;;;;;;;17.65;14.10;;;;;;;-146.58;100.00;69501.63;5030060;28;21024;-68
2024/01/08 04:25:16;;;;;;;19.70;13.98;;;;;;;-146.58;100.00;69501.63;5029609;28;20046;-68
2024/01/08 04:27:45;;;;;;;26.40;17.20;;;;;;;-146.58;100.00;69501.63;5030774;28;20025;-67
2024/01/08 04:30:10;;;;;;;26.90;17.02;;;;;;;-146.58;100.00;69501.63;5029584;28;20056;-66
2024/01/08 04:32:36;;;;;;;21.45;15.07;;;;;;;-146.58;100.00;69501.63;5030706;28;20388;-66
2024/01/08 04:35:05;;;;;;;21.75;16.48;;;;;;;-146.58;100.00;69501.63;5029499;28;20041;-66
2024/01/08 04:37:30;;;;;;;22.75;16.95;;;;;;;-146.58;100.00;69501.63;5030128;28;20113;-65
2024/01/08 04:39:55;;;;;;;20.60;15.60;;;;;;;-146.58;100.00;69501.63;5029616;28;20524;-66
2024/01/08 04:42:21;;;;;;;18.73;14.55;;;;;;;-146.58;100.00;69501.63;5030924;28;20032;-65
2024/01/08 04:44:47;;;;;;;17.30;14.85;;;;;;;-146.58;100.00;69501.63;5028998;28;20514;-65
2024/01/08 04:47:12;;;;;;;19.15;15.90;;;;;;;-146.58;100.00;69501.63;5030669;28;20028;-67
2024/01/08 04:49:38;;;;;;;21.23;17.42;;;;;;;-146.58;100.00;69501.63;5029142;28;20055;-66
2024/01/08 04:52:04;;;;;;;19.35;15.30;;;;;;;-146.58;100.00;69501.63;5030884;28;20400;-66
2024/01/08 04:54:29;;;;;;;23.23;15.57;;;;;;;-146.58;100.00;69501.63;5029028;28;20128;-66
2024/01/08 04:56:55;;;;;;;20.83;15.73;;;;;;;-146.58;100.00;69501.63;5030912;28;20350;-66
2024/01/08 04:59:22;;;;;;;20.65;16.08;;;;;;;-146.58;100.00;69501.63;5029421;28;20037;-66
2024/01/08 05:01:49;;;;;;;20.48;15.63;;;;;;;-146.58;100.00;69501.63;5030410;28;20026;-67
2024/01/08 05:04:14;;;;;;;23.08;17.70;;;;;;;-146.58;100.00;69501.63;5029518;28;20037;-66
2024/01/08 05:06:39;;;;;;;30.60;18.60;;;;;;;-146.58;100.00;69501.63;5030570;28;20087;-66
2024/01/08 05:09:05;;;;;;;24.70;16.50;;;;;;;-146.58;100.00;69501.63;5028735;28;20045;-66
2024/01/08 05:11:30;;;;;;;21.35;16.35;;;;;;;-146.58;100.00;69501.63;5030446;28;20026;-61
2024/01/08 05:13:56;;;;;;;17.05;14.88;;;;;;;-146.58;100.00;69501.63;5028850;28;20467;-64
2024/01/08 05:16:21;;;;;;;19.88;14.65;;;;;;;-146.58;100.00;69501.63;5029626;28;20595;-65
2024/01/08 05:18:46;;;;;;;16.83;15.02;;;;;;;-146.58;100.00;69501.63;5028837;28;20040;-65
2024/01/08 05:21:15;;;;;;;20.88;15.80;;;;;;;-146.58;100.00;69501.63;5030300;28;20083;-65
2024/01/08 05:23:40;;;;;;;28.85;16.80;;;;;;;-146.58;100.00;69501.63;5028423;28;20029;-65
2024/01/08 05:26:06;;;;;;;28.10;17.95;;;;;;;-146.58;100.00;69501.63;5030558;28;20036;-64
2024/01/08 05:28:32;;;;;;;26.80;14.82;;;;;;;-146.58;100.00;69501.63;5030255;28;20032;-64
2024/01/08 05:30:58;;;;;;;18.85;14.05;;;;;;;-146.58;100.00;69501.63;5028659;28;20124;-63
2024/01/08 05:33:25;;;;;;;17.08;15.00;;;;;;;-146.58;100.00;69501.63;5030552;28;20040;-64
2024/01/08 05:35:50;;;;;;;22.83;15.68;;;;;;;-146.58;100.00;69501.63;5030560;28;20069;-64
2024/01/08 05:38:15;;;;;;;21.33;14.82;;;;;;;-146.58;100.00;69501.63;5032912;28;20024;-64
2024/01/08 05:40:41;;;;;;;36.58;27.55;;;;;;;-146.58;100.00;69501.63;5032447;28;20045;-64
2024/01/08 05:43:06;;;;;;;29.08;16.98;;;;;;;-146.58;100.00;69501.63;5034126;28;20105;-63
2024/01/08 05:45:31;;;;;;;21.45;16.17;;;;;;;-146.58;100.00;69501.63;5032064;28;20045;-63
2024/01/08 05:47:57;;;;;;;28.95;18.30;;;;;;;-146.58;100.00;69501.63;5034054;28;20026;-64
2024/01/08 05:50:27;;;;;;;22.58;16.70;;;;;;;-146.58;100.00;69501.63;5032661;28;20119;-63
2024/01/08 05:52:54;;;;;;;25.05;16.40;;;;;;;-146.58;100.00;69501.63;5033333;28;20029;-63
2024/01/08 05:55:22;;;;;;;15.77;13.65;;;;;;;-146.58;100.00;69501.63;5032512;28;20627;-63
2024/01/08 05:57:48;;;;;;;;;;;;;;;-146.58;100.00;69501.63;5034174;28;20029;-64
2024/01/08 06:00:15;;;;;;;15.70;13.10;;;;;;;-146.58;100.00;69501.63;5032128;28;20224;-64
2024/01/08 06:02:41;;;;;;;20.33;12.98;;;;;;;-146.58;100.00;69501.63;5033451;28;20028;-64
2024/01/08 06:05:07;;;;;;;19.23;13.45;;;;;;;-146.58;100.00;69501.63;5032576;28;20442;-64
2024/01/08 06:07:33;;;;;;;13.57;11.40;;;;;;;-146.58;100.00;69501.63;5032981;28;20017;-65
2024/01/08 06:09:58;;;;;;;16.67;12.38;;;;;;;-146.58;100.00;69501.63;5032170;28;20037;-64
2024/01/08 06:12:23;;;;;;;19.58;14.25;;;;;;;-146.58;100.00;69501.63;5033517;28;20105;-64
2024/01/08 06:14:49;;;;;;;20.60;14.50;;;;;;;-146.58;100.00;69501.63;5031412;28;20103;-64
2024/01/08 06:17:14;;;;;;;15.20;11.23;;;;;;;-146.58;100.00;69501.63;5033528;28;20385;-64
2024/01/08 06:19:40;;;;;;;15.05;10.77;;;;;;;-146.58;100.00;69501.63;5032027;28;20033;-64
2024/01/08 06:22:06;;;;;;;17.75;15.57;;;;;;;-146.58;100.00;69501.63;5032921;28;20063;-64
2024/01/08 06:24:32;;;;;;;16.48;12.75;;;;;;;-146.58;100.00;69501.63;5031640;28;20076;-64
2024/01/08 06:26:57;;;;;;;14.95;11.18;;;;;;;-146.58;100.00;69501.63;5033545;28;20026;-66
2024/01/08 06:29:22;;;;;;;14.48;11.02;;;;;;;-146.58;100.00;69501.63;5031639;28;20041;-64
2024/01/08 06:31:48;;;;;;;13.48;11.13;;;;;;;-146.58;100.00;69501.63;5032916;28;20025;-64
2024/01/08 06:34:13;;;;;;;13.40;12.00;;;;;;;-146.58;100.00;69501.63;5031837;28;20034;-65
2024/01/08 06:36:39;;;;;;;18.98;14.70;;;;;;;-146.58;100.00;69501.63;5032290;28;20021;-64
2024/01/08 06:39:05;;;;;;;13.55;12.25;;;;;;;-146.58;100.00;69501.63;5031747;28;20041;-64
2024/01/08 06:41:30;;;;;;;13.25;11.77;;;;;;;-146.58;100.00;69501.63;5033105;28;20071;-64
2024/01/08 06:43:56;;;;;;;12.38;11.10;;;;;;;-146.58;100.00;69501.63;5031229;28;20037;-64
2024/01/08 06:46:21;;;;;;;12.25;10.35;;;;;;;-146.58;100.00;69501.63;5032777;28;20087;-64
2024/01/08 06:48:47;;;;;;;23.58;12.70;;;;;;;-146.58;100.00;69501.63;5031419;28;20028;-64
2024/01/08 06:51:12;;;;;;;12.30;9.88;;;;;;;-146.58;100.00;69501.63;5032129;28;20068;-65
2024/01/08 06:53:38;;;;;;;15.05;13.30;;;;;;;-146.58;100.00;69501.63;5031291;28;20496;-64
2024/01/08 06:56:03;;;;;;;13.27;11.70;;;;;;;-146.58;100.00;69501.63;5032936;28;20299;-65
2024/01/08 06:58:29;;;;;;;12.73;10.30;;;;;;;-146.58;100.00;69501.63;5031832;28;20437;-64
2024/01/08 07:00:54;;;;;;;14.43;11.50;;;;;;;-146.58;100.00;69501.63;5031309;28;20064;-64
2024/01/08 07:03:19;;;;;;;12.20;11.07;;;;;;;-146.58;100.00;69501.63;5032685;28;20033;-64
2024/01/08 07:05:46;;;;;;;15.70;11.80;;;;;;;-146.58;100.00;69501.63;5030318;28;20049;-64
2024/01/08 07:08:12;;;;;;;13.32;11.95;;;;;;;-146.58;100.00;69501.63;5032720;28;20044;-64
2024/01/08 07:10:37;;;;;;;9.93;9.00;;;;;;;-146.58;100.00;69501.63;5030721;28;20496;-64
2024/01/08 07:13:02;;;;;;;17.63;10.98;;;;;;;-146.58;100.00;69501.63;5031943;28;20481;-64
2024/01/08 07:15:41;;;;;;;12.07;10.20;;;;;;;-146.58;100.00;69501.63;5030832;28;20048;-64
2024/01/08 07:18:08;;;;;;;11.73;10.57;;;;;;;-146.58;100.00;69501.63;5032501;28;20431;-64
2024/01/08 07:20:35;;;;;;;13.98;9.70;;;;;;;-146.58;100.00;69501.63;5030173;28;20084;-64
2024/01/08 07:23:01;;;;;;;10.65;9.65;;;;;;;-146.58;100.00;69501.63;5032529;28;20033;-64
2024/01/08 07:25:26;;;;;;;10.52;9.48;;;;;;;-146.58;100.00;69501.63;5030720;28;20056;-65
2024/01/08 07:27:51;;;;;;;11.23;9.70;;;;;;;-146.58;100.00;69501.63;5031297;28;20072;-65
2024/01/08 07:30:17;;;;;;;13.98;10.68;;;;;;;-146.58;100.00;69501.63;5030002;28;20515;-65
2024/01/08 07:32:43;;;;;;;18.85;14.52;;;;;;;-146.58;100.00;69501.63;5028755;28;20087;-60
2024/01/08 07:35:08;;;;;;;13.95;12.23;;;;;;;-146.58;100.00;69501.63;5030208;28;20037;-62
2024/01/08 07:37:34;;;;;;;12.60;11.27;;;;;;;-146.58;100.00;69501.63;5031679;28;20128;-61
2024/01/08 07:39:59;;;;;;;19.45;16.77;;;;;;;-146.58;100.00;69501.63;5030445;28;20045;-61
2024/01/08 07:42:25;;;;;;;14.55;12.00;;;;;;;-146.58;100.00;69501.63;5031442;28;20037;-61
2024/01/08 07:44:50;;;;;;;16.75;15.10;;;;;;;-146.58;100.00;69501.63;5030343;28;20050;-60
2024/01/08 07:47:15;;;;;;;14.10;10.38;;;;;;;-146.58;100.00;69501.63;5031703;28;20424;-61
2024/01/08 07:49:41;;;;;;;14.23;11.02;;;;;;;-146.58;100.00;69501.63;5018658;28;20046;-60
2024/01/08 07:52:06;;;;;;;13.90;11.50;;;;;;;-146.58;100.00;69501.63;5012142;28;20092;-60
2024/01/08 07:54:32;;;;;;;15.27;11.63;;;;;;;-146.58;100.00;69501.63;5018507;28;20056;-61
2024/01/08 07:56:57;;;;;;;12.90;10.55;;;;;;;-146.58;100.00;69501.63;5031085;28;20108;-61
2024/01/08 07:59:22;;;;;;;18.52;12.40;;;;;;;-146.58;100.00;69501.63;5029605;28;20038;-60
2024/01/08 08:01:48;;;;;;;12.38;10.73;;;;;;;-146.58;100.00;69501.63;5031479;28;20029;-60
2024/01/08 08:04:13;;;;;;;17.50;12.68;;;;;;;-146.58;100.00;69501.63;5030258;28;20049;-61
2024/01/08 08:06:38;;;;;;;15.68;11.32;;;;;;;-146.58;100.00;69501.63;5031207;28;20028;-61
2024/01/08 08:09:05;;;;;;;17.23;12.60;;;;;;;-146.58;100.00;69501.63;5029878;28;20037;-60
2024/01/08 08:11:30;;;;;;;12.90;9.80;;;;;;;-146.58;100.00;69501.63;5031072;28;20555;-60
2024/01/08 08:13:56;;;;;;;12.63;11.02;;;;;;;-146.58;100.00;69501.63;5024592;28;20095;-61
2024/01/08 08:16:21;;;;;;;17.05;11.93;;;;;;;-146.58;100.00;69501.63;5027110;28;20071;-61
2024/01/08 08:18:47;;;;;;;15.30;12.50;;;;;;;-146.58;100.00;69501.63;5009958;28;20022;-61
2024/01/08 08:21:12;;;;;;;14.25;12.85;;;;;;;-146.58;100.00;69501.63;5021415;28;20075;-60
2024/01/08 08:23:37;;;;;;;13.45;11.00;;;;;;;-146.58;100.00;69501.63;5029487;28;20021;-60
2024/01/08 08:26:03;;;;;;;16.95;12.05;;;;;;;-146.58;100.00;69501.63;5031127;28;20037;-60
2024/01/08 08:28:29;;;;;;;13.38;11.90;;;;;;;-146.58;100.00;69501.63;5030461;28;20024;-60
2024/01/08 08:30:55;;;;;;;13.80;11.40;;;;;;;-146.58;100.00;69501.63;5029791;28;20092;-61
2024/01/08 08:33:20;;;;;;;14.10;10.90;;;;;;;-146.58;100.00;69501.63;5030931;28;20409;-60
2024/01/08 08:35:45;;;;;;;13.13;11.38;;;;;;;-146.58;100.00;69501.63;5028834;28;20106;-60
2024/01/08 08:38:12;;;;;;;14.23;12.57;;;;;;;-146.58;100.00;69501.63;5030776;28;20385;-61
2024/01/08 08:40:38;;;;;;;14.55;12.20;;;;;;;-146.58;100.00;69501.63;5029272;28;20421;-61
2024/01/08 08:43:03;;;;;;;20.23;13.80;;;;;;;-146.58;100.00;69501.63;5030852;28;20076;-61
2024/01/08 08:45:28;;;;;;;21.45;13.70;;;;;;;-146.58;100.00;69501.63;5029054;28;20041;-61
2024/01/08 08:47:54;;;;;;;14.50;11.07;;;;;;;-146.58;100.00;69501.63;5030386;28;20025;-60
2024/01/08 08:50:19;;;;;;;16.20;13.05;;;;;;;-146.58;100.00;69501.63;5028761;28;20041;-60
2024/01/08 08:52:45;;;;;;;17.48;13.52;;;;;;;-146.58;100.00;69501.63;5030613;28;20021;-60
2024/01/08 08:55:11;;;;;;;18.30;15.20;;;;;;;-146.58;100.00;69501.63;5029688;28;20037;-60
2024/01/08 08:57:36;;;;;;;19.10;16.50;;;;;;;-146.58;100.00;69501.63;5030197;28;20031;-60
2024/01/08 09:00:03;;;;;;;21.05;16.00;;;;;;;-146.58;100.00;69501.63;5028590;28;20108;-61
2024/01/08 09:02:28;;;;;;;19.33;16.65;;;;;;;-146.58;100.00;69501.63;5030782;28;20022;-60
2024/01/08 09:04:54;;;;;;;16.88;14.73;;;;;;;-146.58;100.00;69501.63;5029129;28;20064;-60
2024/01/08 09:07:22;;;;;;;15.27;13.68;;;;;;;-146.58;100.00;69501.63;5030768;28;20017;-60
2024/01/08 09:09:49;;;;;;;14.32;12.80;;;;;;;-146.58;100.00;69501.63;5032206;28;20040;-60
2024/01/08 09:12:14;;;;;;;12.68;11.48;;;;;;;-146.58;100.00;69501.63;5034208;28;20039;-61
2024/01/08 09:14:41;;;;;;;13.48;11.52;;;;;;;-146.58;100.00;69501.63;5033009;28;20124;-60
2024/01/08 09:17:06;;;;;;;10.88;9.77;;;;;;;-146.58;100.00;69501.63;5034672;28;20033;-60
2024/01/08 09:19:32;;;;;;;12.75;10.02;;;;;;;-146.58;100.00;69501.63;5032666;28;20508;-60
2024/01/08 09:21:57;;;;;;;14.73;11.23;;;;;;;-146.58;100.00;69501.63;5034725;28;20088;-60
2024/01/08 09:24:23;;;;;;;14.82;11.43;;;;;;;-146.58;100.00;69501.63;5033428;28;20032;-60
2024/01/08 09:26:48;;;;;;;12.52;10.52;;;;;;;-146.58;100.00;69501.63;5034115;28;20025;-60
2024/01/08 09:29:13;;;;;;;12.93;10.35;;;;;;;-146.58;100.00;69501.63;5032862;28;20037;-60
2024/01/08 09:31:39;;;;;;;13.52;10.52;;;;;;;-146.58;100.00;69501.63;5033980;28;20068;-60
2024/01/08 09:34:05;;;;;;;12.23;10.10;;;;;;;-146.58;100.00;69501.63;5032545;28;20037;-60
2024/01/08 09:36:31;;;;;;;12.05;9.98;;;;;;;-146.58;100.00;69501.63;5034392;28;20028;-60
2024/01/08 09:38:56;;;;;;;10.52;9.35;;;;;;;-146.58;100.00;69501.63;5032984;28;20042;-60
2024/01/08 09:41:22;;;;;;;10.52;9.30;;;;;;;-146.58;100.00;69501.63;5034120;28;20017;-60
2024/01/08 09:43:47;;;;;;;12.15;10.00;;;;;;;-146.58;100.00;69501.63;5032722;28;20480;-60
2024/01/08 09:46:26;;;;;;;10.90;8.18;;;;;;;-146.58;100.00;69501.63;5034348;28;20135;-60
2024/01/08 09:48:53;;;;;;;11.15;9.73;;;;;;;-146.58;100.00;69501.63;5032578;28;20403;-60
2024/01/08 09:51:19;;;;;;;10.95;9.77;;;;;;;-146.58;100.00;69501.63;5033858;28;20029;-61
2024/01/08 09:53:45;;;;;;;13.07;8.98;;;;;;;-146.58;100.00;69501.63;5032482;28;20075;-61
2024/01/08 09:56:11;;;;;;;11.48;8.82;;;;;;;-146.58;100.00;69501.63;5033779;28;20389;-60
2024/01/08 09:58:36;;;;;;;7.75;7.05;;;;;;;-146.58;100.00;69501.63;5032116;28;20508;-60
2024/01/08 10:01:03;;;;;;;10.25;8.50;;;;;;;-146.58;100.00;69501.63;5033510;28;20461;-60
2024/01/08 10:03:28;;;;;;;10.20;9.25;;;;;;;-146.58;100.00;69501.63;5031743;28;20048;-61
2024/01/08 10:05:54;;;;;;;11.13;7.88;;;;;;;-146.58;100.00;69501.63;5032009;28;20045;-61
2024/01/08 10:08:19;;;;;;;17.00;10.40;;;;;;;-146.58;100.00;69501.63;5031724;28;20236;-61
2024/01/08 10:10:45;;;;;;;9.68;8.70;;;;;;;-146.58;100.00;69501.63;5030846;28;20044;-61
2024/01/08 10:13:12;;;;;;;11.27;10.10;;;;;;;-146.58;100.00;69501.63;5032064;28;20440;-61
2024/01/08 10:15:37;;;;;;;11.80;8.82;;;;;;;-146.58;100.00;69501.63;5031432;28;20136;-61
2024/01/08 10:18:08;;;;;;;10.13;7.72;;;;;;;-146.58;100.00;69501.63;5033075;28;20132;-61
2024/01/08 10:20:33;;;;;;;8.55;7.70;;;;;;;-146.58;100.00;69501.63;5031084;28;20417;-60
2024/01/08 10:23:05;;;;;;;13.23;7.60;;;;;;;-146.58;100.00;69501.63;5033513;28;20032;-60
2024/01/08 10:25:33;;;;;;;8.30;7.43;;;;;;;-146.58;100.00;69501.63;5031346;28;20052;-60
2024/01/08 10:27:59;;;;;;;9.48;7.45;;;;;;;-146.58;100.00;69501.63;5033529;28;20353;-59
2024/01/08 10:30:25;;;;;;;8.43;7.63;;;;;;;-146.58;100.00;69501.63;5031811;28;20037;-59
2024/01/08 10:32:51;;;;;;;7.03;6.43;;;;;;;-146.58;100.00;69501.63;5032505;28;20078;-59
2024/01/08 10:35:18;;;;;;;8.63;6.60;;;;;;;-146.58;100.00;69501.63;5031648;28;20042;-59
2024/01/08 10:37:47;;;;;;;6.95;6.35;;;;;;;-146.58;100.00;69501.63;5032726;28;20111;-59
2024/01/08 10:40:13;;;;;;;12.02;7.18;;;;;;;-146.58;100.00;69501.63;5031339;28;20064;-59
2024/01/08 10:42:41;;;;;;;7.57;6.97;;;;;;;-146.58;100.00;69501.63;5032817;28;20030;-58
2024/01/08 10:45:07;;;;;;;7.93;7.13;;;;;;;-146.58;100.00;69501.63;5031676;28;20455;-59
2024/01/08 10:47:37;;;;;;;7.43;6.75;;;;;;;-146.58;100.00;69501.63;5029902;28;20029;-59
2024/01/08 10:50:05;;;;;;;7.57;6.82;;;;;;;-146.58;100.00;69501.63;5031237;28;20039;-59